createdAt,value
2022-09-15T00:03:21.781Z,14.80
2022-09-15T00:08:25.736Z,11.90
2022-09-15T00:13:29.146Z,14.80
2022-09-15T00:18:34.110Z,13.80
2022-09-15T00:23:38.414Z,13.80
2022-09-15T00:28:42.918Z,12.70
2022-09-15T00:33:48.743Z,11.30
2022-09-15T00:38:54.984Z,13.00
2022-09-15T00:44:00.846Z,9.90
2022-09-15T00:49:18.117Z,12.50
2022-09-15T00:54:32.230Z,12.60
2022-09-15T00:59:38.114Z,11.40
2022-09-15T01:04:41.739Z,12.80
2022-09-15T01:10:15.208Z,13.50
2022-09-15T01:15:18.731Z,13.70
2022-09-15T01:20:45.036Z,12.80
2022-09-15T01:25:57.328Z,15.30
2022-09-15T01:31:13.122Z,15.00
2022-09-15T01:36:25.403Z,16.30
2022-09-15T01:41:55.983Z,13.10
2022-09-15T01:47:03.271Z,17.00
2022-09-15T01:52:08.381Z,14.70
2022-09-15T01:57:12.567Z,29.00
2022-09-15T02:02:29.826Z,19.20
2022-09-15T02:08:15.870Z,18.30
2022-09-15T02:13:54.351Z,21.80
2022-09-15T02:19:20.530Z,23.70
2022-09-15T02:24:30.870Z,23.30
2022-09-15T02:29:37.402Z,23.00
2022-09-15T02:34:47.182Z,24.00
2022-09-15T02:39:55.098Z,24.70
2022-09-15T02:45:00.321Z,23.80
2022-09-15T02:50:04.524Z,24.00
2022-09-15T02:55:08.198Z,20.40
2022-09-15T03:00:16.747Z,20.50
2022-09-15T03:05:22.668Z,14.20
2022-09-15T03:10:26.551Z,13.50
2022-09-15T03:15:29.692Z,9.70
2022-09-15T03:20:33.509Z,14.40
2022-09-15T03:25:36.955Z,15.30
2022-09-15T03:30:40.828Z,12.00
2022-09-15T03:35:48.096Z,11.20
2022-09-15T03:41:10.856Z,12.70
2022-09-15T03:51:29.210Z,10.60
2022-09-15T03:56:33.180Z,10.90
2022-09-15T04:01:36.360Z,14.10
2022-09-15T04:06:39.683Z,7.30
2022-09-15T04:11:53.857Z,5.30
2022-09-15T04:16:58.105Z,13.40
2022-09-15T04:22:01.304Z,6.20
2022-09-15T04:27:04.720Z,9.60
2022-09-15T04:32:08.708Z,9.80
2022-09-15T04:37:12.538Z,11.70
2022-09-15T04:42:15.786Z,10.10
2022-09-15T04:47:19.735Z,12.60
2022-09-15T04:52:22.903Z,13.40
2022-09-15T04:57:26.164Z,12.80
2022-09-15T05:02:29.532Z,17.10
2022-09-15T05:07:32.866Z,14.40
2022-09-15T05:12:36.042Z,17.70
2022-09-15T05:17:39.537Z,18.90
2022-09-15T05:22:42.976Z,17.90
2022-09-15T05:27:46.142Z,14.90
2022-09-15T05:32:49.343Z,15.90
2022-09-15T05:37:54.765Z,16.50
2022-09-15T05:42:59.556Z,12.30
2022-09-15T05:48:04.389Z,16.20
2022-09-15T05:53:08.885Z,15.30
2022-09-15T05:58:12.538Z,10.60
2022-09-15T06:03:17.188Z,10.80
2022-09-15T06:08:21.047Z,16.50
2022-09-15T06:13:24.426Z,12.80
2022-09-15T06:18:27.802Z,11.20
2022-09-15T06:23:31.109Z,12.50
2022-09-15T06:28:34.304Z,9.40
2022-09-15T06:33:37.574Z,9.40
2022-09-15T06:38:41.971Z,7.00
2022-09-15T06:43:45.981Z,7.00
2022-09-15T06:48:49.479Z,5.50
2022-09-15T06:53:54.007Z,10.40
2022-09-15T06:58:57.213Z,6.20
2022-09-15T07:04:10.527Z,6.10
2022-09-15T07:09:13.964Z,6.10
2022-09-15T07:14:17.589Z,9.80
2022-09-15T07:19:21.427Z,8.20
2022-09-15T07:24:24.814Z,6.80
2022-09-15T07:29:27.963Z,4.60
2022-09-15T07:34:31.288Z,4.50
2022-09-15T07:39:34.450Z,9.70
2022-09-15T07:44:37.702Z,8.40
2022-09-15T07:49:41.230Z,7.40
2022-09-15T07:54:46.274Z,9.10
2022-09-15T07:59:49.525Z,12.80
2022-09-15T08:04:53.397Z,6.60
2022-09-15T08:09:56.585Z,6.80
2022-09-15T08:14:59.758Z,8.60
2022-09-15T08:20:04.009Z,6.40
2022-09-15T08:25:07.403Z,10.50
2022-09-15T08:30:11.548Z,10.20
2022-09-15T08:35:17.003Z,8.90
2022-09-15T08:40:24.705Z,4.50
2022-09-15T08:45:32.819Z,4.20
2022-09-15T08:50:39.916Z,6.70
2022-09-15T08:55:53.596Z,7.70
2022-09-15T09:01:36.795Z,6.60
2022-09-15T09:06:43.338Z,7.60
2022-09-15T09:12:01.945Z,4.30
2022-09-15T09:17:08.257Z,4.90
2022-09-15T09:22:15.820Z,4.30
2022-09-15T09:27:25.618Z,4.80
2022-09-15T09:32:51.668Z,5.30
2022-09-15T09:38:01.339Z,4.70
2022-09-15T09:43:06.189Z,7.20
2022-09-15T09:48:20.608Z,4.20
2022-09-15T09:53:32.351Z,5.70
2022-09-15T09:58:37.583Z,3.60
2022-09-15T10:03:42.126Z,5.60
2022-09-15T10:08:58.721Z,2.90
2022-09-15T10:14:02.280Z,4.30
2022-09-15T10:19:12.733Z,6.60
2022-09-15T10:24:34.925Z,5.90
2022-09-15T10:29:40.466Z,10.40
2022-09-15T10:34:49.125Z,2.70
2022-09-15T10:39:54.812Z,5.10
2022-09-15T10:45:11.323Z,5.40
2022-09-15T10:50:21.585Z,5.10
2022-09-15T10:55:54.859Z,7.50
2022-09-15T11:01:16.885Z,6.00
2022-09-15T11:06:33.264Z,5.10
2022-09-15T11:11:48.423Z,4.90
2022-09-15T11:17:28.402Z,5.50
2022-09-15T11:22:37.681Z,6.70
2022-09-15T11:27:45.357Z,5.40
2022-09-15T11:32:58.949Z,3.60
2022-09-15T11:38:36.296Z,7.10
2022-09-15T11:44:02.300Z,4.50
2022-09-15T11:49:16.295Z,3.60
2022-09-15T11:54:34.429Z,5.00
2022-09-15T11:59:58.803Z,6.90
2022-09-15T12:05:16.239Z,4.20
2022-09-15T12:10:24.887Z,6.30
2022-09-15T12:15:28.387Z,4.20
2022-09-15T12:20:37.894Z,6.00
2022-09-15T12:26:19.407Z,7.20
2022-09-15T12:31:37.597Z,5.80
2022-09-15T12:37:09.088Z,6.70
2022-09-15T12:42:25.519Z,4.40
2022-09-15T12:47:35.545Z,2.10
2022-09-15T12:52:51.814Z,6.20
2022-09-15T12:58:02.911Z,2.80
2022-09-15T13:03:28.666Z,8.40
2022-09-15T13:08:31.924Z,3.40
2022-09-15T13:13:56.262Z,3.60
2022-09-15T13:19:30.054Z,4.40
2022-09-15T13:25:01.389Z,4.80
2022-09-15T13:30:43.453Z,4.90
2022-09-15T13:35:52.819Z,3.90
2022-09-15T13:41:24.020Z,5.10
2022-09-15T13:46:49.367Z,5.50
2022-09-15T13:52:22.711Z,2.80
2022-09-15T14:02:52.914Z,4.00
2022-09-15T14:08:04.441Z,6.60
2022-09-15T14:13:07.816Z,4.90
2022-09-15T14:18:20.296Z,4.40
2022-09-15T14:23:26.677Z,5.00
2022-09-15T14:28:32.818Z,4.80
2022-09-15T14:33:42.522Z,6.10
2022-09-15T14:39:17.192Z,6.20
2022-09-15T14:55:35.709Z,6.10
2022-09-15T15:00:53.985Z,3.60
2022-09-15T15:06:29.563Z,3.80
2022-09-15T15:11:42.315Z,6.40
2022-09-15T15:17:27.760Z,5.50
2022-09-15T15:22:38.797Z,3.80
2022-09-15T15:27:57.354Z,5.00
2022-09-15T15:33:15.110Z,3.70
2022-09-15T15:38:28.027Z,3.60
2022-09-15T15:43:39.036Z,3.60
2022-09-15T15:48:42.506Z,5.80
2022-09-15T15:53:46.021Z,4.50
2022-09-15T15:58:49.143Z,6.70
2022-09-15T16:04:03.365Z,4.50
2022-09-15T16:09:07.253Z,5.00
2022-09-15T16:14:14.889Z,5.60
2022-09-15T16:19:25.035Z,3.90
2022-09-15T16:24:29.430Z,5.10
2022-09-15T16:29:36.447Z,3.80
2022-09-15T16:34:40.114Z,5.90
2022-09-15T16:39:48.820Z,6.30
2022-09-15T16:45:02.879Z,5.70
2022-09-15T16:50:07.582Z,6.60
2022-09-15T16:55:19.404Z,4.40
2022-09-15T17:00:25.440Z,3.00
2022-09-15T17:05:39.959Z,3.90
2022-09-15T17:10:55.359Z,2.40
2022-09-15T17:16:03.046Z,2.80
2022-09-15T17:21:13.593Z,1.70
2022-09-15T17:26:27.628Z,4.80
2022-09-15T17:31:39.174Z,2.90
2022-09-15T17:36:42.680Z,2.70
2022-09-15T17:41:49.683Z,6.50
2022-09-15T17:46:53.627Z,2.20
2022-09-15T17:51:57.025Z,3.80
2022-09-15T17:57:00.460Z,3.30
2022-09-15T18:02:04.486Z,4.00
2022-09-15T18:07:20.660Z,2.20
2022-09-15T18:12:28.865Z,8.20
2022-09-15T18:17:32.789Z,10.80
2022-09-15T18:22:45.818Z,3.20
2022-09-15T18:28:02.264Z,3.10
2022-09-15T18:33:06.019Z,3.60
2022-09-15T18:38:15.519Z,5.30
2022-09-15T18:43:28.916Z,4.00
2022-09-15T18:48:38.146Z,2.00
2022-09-15T18:53:54.242Z,7.20
2022-09-15T18:59:09.922Z,3.70
2022-09-15T19:04:19.995Z,4.00
2022-09-15T19:09:30.572Z,1.80
2022-09-15T19:14:49.631Z,1.70
2022-09-15T19:20:35.935Z,3.70
2022-09-15T19:25:50.882Z,2.50
2022-09-15T19:31:00.039Z,4.80
2022-09-15T19:36:27.550Z,6.00
2022-09-15T19:41:39.089Z,2.90
2022-09-15T19:46:46.346Z,4.70
2022-09-15T19:51:55.618Z,6.10
2022-09-15T19:57:13.860Z,8.00
2022-09-15T20:02:23.583Z,4.40
2022-09-15T20:07:28.130Z,7.30
2022-09-15T20:12:35.326Z,4.80
2022-09-15T20:17:49.274Z,2.60
2022-09-15T20:22:54.583Z,5.60
2022-09-15T20:28:09.147Z,6.80
2022-09-15T20:33:28.528Z,8.50
2022-09-15T20:38:40.998Z,6.20
2022-09-15T20:43:55.319Z,4.40
2022-09-15T20:49:21.959Z,12.40
2022-09-15T20:54:26.086Z,5.70
2022-09-15T20:59:36.309Z,4.30
2022-09-15T21:04:58.719Z,5.90
2022-09-15T21:10:05.808Z,7.90
2022-09-15T21:15:09.720Z,6.40
2022-09-15T21:20:13.956Z,6.90
2022-09-15T21:25:20.366Z,8.10
2022-09-15T21:30:24.040Z,3.20
2022-09-15T21:35:27.447Z,6.00
2022-09-15T21:40:33.141Z,4.70
2022-09-15T21:45:42.679Z,5.00
2022-09-15T21:50:51.160Z,5.60
2022-09-15T21:55:55.127Z,9.20
2022-09-15T22:00:58.478Z,7.60
2022-09-15T22:06:02.157Z,8.90
2022-09-15T22:11:07.477Z,4.10
2022-09-15T22:16:19.217Z,4.80
2022-09-15T22:21:26.814Z,5.20
2022-09-15T22:26:32.515Z,5.50
2022-09-15T22:31:37.614Z,3.30
2022-09-15T22:36:42.053Z,4.60
2022-09-15T22:41:45.807Z,4.50
2022-09-15T22:46:58.204Z,4.70
2022-09-15T22:52:03.284Z,3.90
2022-09-15T22:57:07.480Z,5.90
2022-09-15T23:02:11.237Z,5.40
2022-09-15T23:07:15.121Z,4.10
2022-09-15T23:12:25.195Z,3.00
2022-09-15T23:17:29.895Z,4.90
2022-09-15T23:22:33.146Z,6.20
2022-09-15T23:27:37.246Z,6.60
2022-09-15T23:32:43.066Z,6.00
2022-09-15T23:37:48.083Z,4.60
2022-09-15T23:42:53.440Z,4.80
2022-09-15T23:47:56.743Z,4.60
2022-09-15T23:53:00.172Z,4.10
2022-09-15T23:58:05.142Z,4.50
